createdAt,value
2023-08-07T00:00:18.140Z,102188.72
2023-08-07T00:02:44.840Z,102166.59
2023-08-07T00:05:11.571Z,102191.53
2023-08-07T00:07:38.278Z,102112.78
2023-08-07T00:10:05.518Z,102170.75
2023-08-07T00:12:32.212Z,102192.13
2023-08-07T00:15:01.959Z,102191.34
2023-08-07T00:17:31.017Z,102194.78
2023-08-07T00:19:57.711Z,102183.13
2023-08-07T00:22:26.881Z,102196.38
2023-08-07T00:24:53.589Z,102200.72
2023-08-07T00:27:20.565Z,102189.16
2023-08-07T00:29:49.718Z,102206.69
2023-08-07T00:32:18.861Z,102187.22
2023-08-07T00:34:45.611Z,102130.69
2023-08-07T00:37:12.285Z,102201.25
2023-08-07T00:39:41.936Z,102173.59
2023-08-07T00:42:08.621Z,102176.28
2023-08-07T00:44:35.954Z,102189.72
2023-08-07T00:47:03.025Z,102171.91
2023-08-07T00:49:29.925Z,102193.88
2023-08-07T00:51:56.963Z,102152.94
2023-08-07T00:54:23.925Z,102151.91
2023-08-07T00:56:50.919Z,102175.13
2023-08-07T00:59:18.032Z,102172.38
2023-08-07T01:01:49.387Z,102174.34
2023-08-07T01:04:16.056Z,102181.22
2023-08-07T01:06:42.770Z,102088.44
2023-08-07T01:09:11.983Z,102132.91
2023-08-07T01:11:51.798Z,102166.00
2023-08-07T01:14:29.621Z,102177.44
2023-08-07T01:17:06.824Z,102171.25
2023-08-07T01:19:35.788Z,102178.97
2023-08-07T01:22:10.133Z,102180.75
2023-08-07T01:24:41.312Z,102159.31
2023-08-07T01:27:20.431Z,102176.19
2023-08-07T01:30:10.273Z,102168.31
2023-08-07T01:33:28.748Z,102170.88
2023-08-07T01:35:59.591Z,102148.34
2023-08-07T01:38:28.202Z,102172.31
2023-08-07T01:40:57.314Z,102142.00
2023-08-07T01:43:24.055Z,102169.53
2023-08-07T01:45:50.674Z,102182.53
2023-08-07T01:48:17.496Z,102166.47
2023-08-07T01:50:47.103Z,102180.59
2023-08-07T01:53:13.793Z,102179.56
2023-08-07T01:55:40.480Z,102183.81
2023-08-07T01:58:07.153Z,102181.84
2023-08-07T02:00:33.914Z,102184.28
2023-08-07T02:03:00.678Z,102186.03
2023-08-07T02:05:27.517Z,102156.50
2023-08-07T02:07:54.151Z,102147.63
2023-08-07T02:10:23.592Z,102100.31
2023-08-07T02:12:50.965Z,102164.56
2023-08-07T02:15:17.773Z,102160.97
2023-08-07T02:17:47.509Z,102178.50
2023-08-07T02:20:16.301Z,102179.28
2023-08-07T02:22:42.906Z,102183.59
2023-08-07T02:25:09.869Z,102169.06
2023-08-07T02:27:36.790Z,102185.94
2023-08-07T02:30:06.608Z,102193.72
2023-08-07T02:32:33.381Z,102179.34
2023-08-07T02:35:02.375Z,102187.38
2023-08-07T02:37:29.103Z,102166.03
2023-08-07T02:39:58.166Z,102181.09
2023-08-07T02:42:24.792Z,102163.34
2023-08-07T02:44:51.470Z,102089.00
2023-08-07T02:47:20.479Z,102180.06
2023-08-07T02:49:47.279Z,102181.72
2023-08-07T02:52:16.236Z,102174.34
2023-08-07T02:54:42.882Z,102187.53
2023-08-07T02:57:09.546Z,102164.19
2023-08-07T02:59:36.192Z,102169.53
2023-08-07T03:02:02.841Z,102181.06
2023-08-07T03:04:31.808Z,102165.75
2023-08-07T03:06:58.705Z,102160.31
2023-08-07T03:09:27.589Z,102159.50
2023-08-07T03:11:56.907Z,102188.72
2023-08-07T03:14:26.002Z,102148.03
2023-08-07T03:16:52.745Z,102132.41
2023-08-07T03:19:22.627Z,102173.59
2023-08-07T03:21:49.371Z,102153.03
2023-08-07T03:24:18.085Z,102149.25
2023-08-07T03:26:45.408Z,102081.28
2023-08-07T03:29:14.660Z,102158.41
2023-08-07T03:31:43.517Z,102088.63
2023-08-07T03:34:10.219Z,102175.28
2023-08-07T03:36:37.207Z,102101.13
2023-08-07T03:39:04.267Z,102148.34
2023-08-07T03:41:31.146Z,102170.75
2023-08-07T03:43:57.917Z,102156.16
2023-08-07T03:46:24.629Z,102149.09
2023-08-07T03:48:51.390Z,102148.25
2023-08-07T03:51:18.056Z,102148.88
2023-08-07T03:53:47.394Z,102181.06
2023-08-07T03:56:14.063Z,102169.53
2023-08-07T03:58:41.350Z,102169.66
2023-08-07T04:01:08.157Z,102166.97
2023-08-07T04:03:37.697Z,102134.66
2023-08-07T04:06:07.161Z,102097.13
2023-08-07T04:08:36.225Z,102097.78
2023-08-07T04:11:08.699Z,102162.97
2023-08-07T04:13:38.200Z,102119.31
2023-08-07T04:16:05.979Z,102171.91
2023-08-07T04:18:34.025Z,102137.13
2023-08-07T04:21:00.922Z,102166.25
2023-08-07T04:23:27.540Z,102102.78
2023-08-07T04:25:57.082Z,102173.41
2023-08-07T04:28:24.700Z,102167.16
2023-08-07T04:30:54.730Z,102156.72
2023-08-07T04:33:24.230Z,102172.53
2023-08-07T04:35:53.059Z,102162.97
2023-08-07T04:38:22.917Z,102171.72
2023-08-07T04:40:55.614Z,102166.41
2023-08-07T04:43:24.516Z,102135.94
2023-08-07T04:45:54.919Z,102151.13
2023-08-07T04:48:26.486Z,102169.16
2023-08-07T04:50:58.989Z,102140.53
2023-08-07T04:53:25.611Z,102051.13
2023-08-07T04:55:52.222Z,102167.38
2023-08-07T04:58:19.247Z,102145.19
2023-08-07T05:00:45.930Z,102182.69
2023-08-07T05:03:12.793Z,102158.94
2023-08-07T05:05:39.483Z,102190.75
2023-08-07T05:08:06.158Z,102148.00
2023-08-07T05:10:34.937Z,102170.41
2023-08-07T05:13:04.139Z,102181.97
2023-08-07T05:15:32.216Z,102189.19
2023-08-07T05:17:59.202Z,102197.38
2023-08-07T05:20:28.189Z,102192.84
2023-08-07T05:22:57.370Z,102184.94
2023-08-07T05:25:24.045Z,102203.81
2023-08-07T05:27:50.731Z,102179.97
2023-08-07T05:30:19.885Z,102152.28
2023-08-07T05:32:46.648Z,102172.22
2023-08-07T05:35:13.386Z,102194.38
2023-08-07T05:37:42.350Z,102209.06
2023-08-07T05:40:09.179Z,102210.31
2023-08-07T05:42:36.249Z,102212.41
2023-08-07T05:45:04.982Z,102213.78
2023-08-07T05:47:35.788Z,102184.75
2023-08-07T05:50:02.453Z,102095.97
2023-08-07T05:52:31.615Z,102180.81
2023-08-07T05:54:58.272Z,102149.56
2023-08-07T05:57:24.953Z,102209.19
2023-08-07T05:59:51.606Z,102208.56
2023-08-07T06:02:20.793Z,102209.72
2023-08-07T06:04:47.955Z,102214.31
2023-08-07T06:07:14.688Z,102216.28
2023-08-07T06:09:44.538Z,102211.19
2023-08-07T06:12:11.290Z,102206.97
2023-08-07T06:14:39.219Z,102193.97
2023-08-07T06:17:06.874Z,102209.25
2023-08-07T06:19:33.573Z,102202.41
2023-08-07T06:22:01.113Z,102203.41
2023-08-07T06:24:28.306Z,102215.19
2023-08-07T06:26:57.378Z,102209.34
2023-08-07T06:29:24.121Z,102191.69
2023-08-07T06:31:53.192Z,102216.91
2023-08-07T06:34:20.147Z,102200.69
2023-08-07T06:36:49.149Z,102207.84
2023-08-07T06:39:15.961Z,102187.84
2023-08-07T06:41:44.842Z,102212.22
2023-08-07T06:44:11.499Z,102207.97
2023-08-07T06:46:40.736Z,102211.16
2023-08-07T06:49:07.378Z,102205.09
2023-08-07T06:51:34.088Z,102194.91
2023-08-07T06:54:00.770Z,102201.31
2023-08-07T06:56:27.526Z,102199.34
2023-08-07T06:58:54.274Z,102189.97
2023-08-07T07:01:23.465Z,102208.69
2023-08-07T07:03:54.305Z,102205.75
2023-08-07T07:06:26.728Z,102202.53
2023-08-07T07:08:55.619Z,102209.84
2023-08-07T07:11:25.640Z,102204.69
2023-08-07T07:13:53.576Z,102220.72
2023-08-07T07:16:26.775Z,102190.22
2023-08-07T07:18:57.229Z,102207.47
2023-08-07T07:21:24.308Z,102203.28
2023-08-07T07:23:51.201Z,102167.50
2023-08-07T07:26:17.858Z,102191.28
2023-08-07T07:28:44.547Z,102200.66
2023-08-07T07:31:12.750Z,102189.47
2023-08-07T07:33:42.649Z,102175.88
2023-08-07T07:36:16.095Z,102188.38
2023-08-07T07:38:44.792Z,102195.19
2023-08-07T07:41:12.940Z,102189.44
2023-08-07T07:43:41.284Z,102156.56
2023-08-07T07:46:08.161Z,102173.78
2023-08-07T07:48:39.599Z,102191.00
2023-08-07T07:51:06.617Z,102182.59
2023-08-07T07:53:33.423Z,102192.94
2023-08-07T07:56:00.234Z,102185.28
2023-08-07T07:58:29.199Z,102163.38
2023-08-07T08:00:55.959Z,102160.22
2023-08-07T08:03:22.980Z,102192.59
2023-08-07T08:05:53.411Z,102170.03
2023-08-07T08:08:22.755Z,102198.72
2023-08-07T08:10:49.462Z,102193.63
2023-08-07T08:13:17.235Z,102186.88
2023-08-07T08:15:45.240Z,102194.31
2023-08-07T08:18:12.711Z,102200.59
2023-08-07T08:20:42.112Z,102193.69
2023-08-07T08:23:11.413Z,102196.63
2023-08-07T08:25:38.059Z,102155.19
2023-08-07T08:28:05.178Z,102199.25
2023-08-07T08:30:34.297Z,102167.66
2023-08-07T08:33:03.184Z,102147.22
2023-08-07T08:35:29.969Z,102203.72
2023-08-07T08:37:56.676Z,102210.38
2023-08-07T08:40:25.627Z,102183.28
2023-08-07T08:42:54.908Z,102214.09
2023-08-07T08:45:22.743Z,102171.72
2023-08-07T08:47:52.618Z,102205.34
2023-08-07T08:50:20.308Z,102158.00
2023-08-07T08:52:47.087Z,102201.13
2023-08-07T08:55:16.588Z,102182.66
2023-08-07T08:57:43.783Z,102167.22
2023-08-07T09:00:21.628Z,102167.06
2023-08-07T09:02:49.994Z,102145.25
2023-08-07T09:05:18.166Z,102185.19
2023-08-07T09:07:48.133Z,102196.25
2023-08-07T09:10:16.151Z,102199.88
2023-08-07T09:12:51.655Z,102179.63
2023-08-07T09:15:23.350Z,102194.84
2023-08-07T09:17:55.651Z,102186.03
2023-08-07T09:20:24.100Z,102165.06
2023-08-07T09:22:50.949Z,102173.97
2023-08-07T09:25:31.670Z,102194.22
2023-08-07T09:27:58.765Z,102189.84
2023-08-07T09:30:30.369Z,102186.56
2023-08-07T09:33:03.092Z,102181.22
2023-08-07T09:35:32.356Z,102133.41
2023-08-07T09:37:59.644Z,102170.00
2023-08-07T09:40:33.072Z,102110.00
2023-08-07T09:43:02.478Z,102167.09
2023-08-07T09:45:33.026Z,102157.97
2023-08-07T09:48:09.226Z,102160.00
2023-08-07T09:50:36.109Z,102105.81
2023-08-07T09:53:05.172Z,102157.47
2023-08-07T09:55:32.807Z,102098.59
2023-08-07T09:58:01.945Z,102151.00
2023-08-07T10:00:36.381Z,102171.81
2023-08-07T10:03:03.439Z,102162.81
2023-08-07T10:05:32.132Z,102156.78
2023-08-07T10:07:59.312Z,102142.97
2023-08-07T10:10:26.528Z,102161.31
2023-08-07T10:12:56.372Z,102163.28
2023-08-07T10:15:23.496Z,102153.38
2023-08-07T10:17:52.766Z,102137.69
2023-08-07T10:20:21.612Z,102123.06
2023-08-07T10:22:49.246Z,102127.25
2023-08-07T10:25:24.468Z,102166.69
2023-08-07T10:27:54.777Z,102161.09
2023-08-07T10:30:25.378Z,102165.94
2023-08-07T10:32:53.595Z,102123.19
2023-08-07T10:35:34.132Z,102143.22
2023-08-07T10:38:10.616Z,102142.84
2023-08-07T10:41:08.581Z,102148.50
2023-08-07T10:43:45.306Z,102132.59
2023-08-07T10:46:13.929Z,102119.50
2023-08-07T10:48:41.346Z,102120.03
2023-08-07T10:51:08.222Z,102119.00
2023-08-07T10:53:37.429Z,102117.47
2023-08-07T10:56:09.630Z,102119.41
2023-08-07T10:58:39.151Z,102124.94
2023-08-07T11:01:24.281Z,102122.50
2023-08-07T11:04:04.125Z,102127.56
2023-08-07T11:06:35.658Z,102126.63
2023-08-07T11:09:05.900Z,102123.88
2023-08-07T11:11:42.372Z,102115.84
2023-08-07T11:14:19.791Z,102118.22
2023-08-07T11:16:49.832Z,102128.22
2023-08-07T11:19:20.994Z,102131.22
2023-08-07T11:21:51.956Z,102092.47
2023-08-07T11:24:21.343Z,102131.28
2023-08-07T11:26:48.129Z,102085.38
2023-08-07T11:29:19.410Z,102119.56
2023-08-07T11:31:46.469Z,102037.28
2023-08-07T11:34:13.354Z,102114.03
2023-08-07T11:36:44.265Z,102085.47
2023-08-07T11:39:11.470Z,102050.72
2023-08-07T11:41:38.210Z,102108.53
2023-08-07T11:44:05.797Z,102106.50
2023-08-07T11:46:32.457Z,102095.81
2023-08-07T11:49:02.045Z,102095.81
2023-08-07T11:51:31.397Z,102025.53
2023-08-07T11:54:00.320Z,102056.56
2023-08-07T11:56:30.342Z,102078.09
2023-08-07T11:58:58.592Z,102096.97
2023-08-07T12:01:30.655Z,102101.69
2023-08-07T12:04:09.630Z,102106.34
2023-08-07T12:06:37.598Z,102095.69
2023-08-07T12:09:07.174Z,102099.34
2023-08-07T12:11:33.921Z,102103.75
2023-08-07T12:14:03.777Z,102094.16
2023-08-07T12:16:34.810Z,102047.72
2023-08-07T12:19:08.954Z,102095.41
2023-08-07T12:21:40.175Z,102082.19
2023-08-07T12:24:08.974Z,102089.22
2023-08-07T12:26:38.101Z,102089.97
2023-08-07T12:29:04.864Z,102092.47
2023-08-07T12:31:31.672Z,102025.16
2023-08-07T12:34:35.578Z,102063.94
2023-08-07T12:36:48.209Z,102058.78
2023-08-07T12:39:15.306Z,102069.28
2023-08-07T12:44:13.625Z,102034.88
2023-08-07T12:46:42.523Z,102045.63
2023-08-07T12:49:12.206Z,102060.88
2023-08-07T12:51:38.911Z,102054.78
2023-08-07T12:54:05.605Z,102003.69
2023-08-07T12:56:32.310Z,102051.16
2023-08-07T12:58:59.010Z,101985.22
2023-08-07T13:01:26.909Z,102053.97
2023-08-07T13:03:53.787Z,102013.34
2023-08-07T13:06:20.617Z,102069.94
2023-08-07T13:08:47.391Z,102076.31
2023-08-07T13:11:14.098Z,102031.47
2023-08-07T13:13:41.378Z,102074.03
2023-08-07T13:16:08.233Z,102073.25
2023-08-07T13:18:35.166Z,101999.06
2023-08-07T13:21:01.936Z,102059.94
2023-08-07T13:23:28.743Z,102034.44
2023-08-07T13:25:58.549Z,102064.47
2023-08-07T13:28:25.341Z,102042.44
2023-08-07T13:30:52.706Z,102029.25
2023-08-07T13:33:21.239Z,102044.28
2023-08-07T13:35:50.682Z,101984.41
2023-08-07T13:38:19.756Z,102069.28
2023-08-07T13:40:46.536Z,102064.09
2023-08-07T13:43:15.399Z,102060.69
2023-08-07T13:45:42.064Z,102059.03
2023-08-07T13:48:10.746Z,102062.59
2023-08-07T13:50:39.346Z,102013.22
2023-08-07T13:53:14.249Z,102066.34
2023-08-07T13:55:41.651Z,102070.91
2023-08-07T13:58:08.361Z,102053.38
2023-08-07T14:00:36.573Z,102072.00
2023-08-07T14:03:08.221Z,102071.22
2023-08-07T14:05:39.077Z,102061.50
2023-08-07T14:08:05.801Z,102050.09
2023-08-07T14:10:32.473Z,102048.41
2023-08-07T14:12:59.131Z,102017.59
2023-08-07T14:15:26.029Z,102070.63
2023-08-07T14:17:53.466Z,102069.81
2023-08-07T14:20:20.204Z,102027.44
2023-08-07T14:22:46.869Z,102069.91
2023-08-07T14:25:13.624Z,102070.84
2023-08-07T14:27:40.273Z,101978.94
2023-08-07T14:30:07.604Z,102003.75
2023-08-07T14:32:34.368Z,102031.16
2023-08-07T14:35:03.403Z,102062.16
2023-08-07T14:37:30.159Z,102035.66
2023-08-07T14:39:59.169Z,101971.16
2023-08-07T14:42:26.142Z,102053.44
2023-08-07T14:44:55.002Z,102053.44
2023-08-07T14:47:21.887Z,102050.78
2023-08-07T14:49:48.676Z,102068.50
2023-08-07T14:52:15.306Z,102014.53
2023-08-07T14:54:46.521Z,102072.06
2023-08-07T14:57:15.421Z,102078.31
2023-08-07T14:59:44.414Z,101942.13
2023-08-07T15:02:11.139Z,102047.34
2023-08-07T15:04:37.858Z,102043.84
2023-08-07T15:07:04.948Z,102063.38
2023-08-07T15:09:34.233Z,102057.16
2023-08-07T15:12:03.633Z,102065.19
2023-08-07T15:14:32.675Z,101977.56
2023-08-07T15:17:01.676Z,102058.94
2023-08-07T15:19:28.427Z,102058.06
2023-08-07T15:21:55.452Z,102056.31
2023-08-07T15:24:24.934Z,102051.88
2023-08-07T15:26:51.757Z,102044.78
2023-08-07T15:29:20.800Z,102036.81
2023-08-07T15:31:47.532Z,102042.09
2023-08-07T15:34:14.268Z,102026.22
2023-08-07T15:36:41.131Z,102034.19
2023-08-07T15:39:08.199Z,101997.03
2023-08-07T15:41:34.889Z,102045.72
2023-08-07T15:44:01.542Z,102020.03
2023-08-07T15:46:31.277Z,102038.63
2023-08-07T15:48:57.971Z,101995.25
2023-08-07T15:51:27.379Z,102040.41
2023-08-07T15:53:58.819Z,101939.56
2023-08-07T15:56:25.525Z,101971.41
2023-08-07T15:58:52.142Z,102003.25
2023-08-07T16:01:21.340Z,102032.44
2023-08-07T16:03:48.291Z,101951.06
2023-08-07T16:06:15.078Z,102004.13
2023-08-07T16:08:41.828Z,102032.47
2023-08-07T16:11:11.008Z,102042.16
2023-08-07T16:13:42.409Z,102039.53
2023-08-07T16:16:09.190Z,101989.06
2023-08-07T16:18:35.948Z,101946.56
2023-08-07T16:21:05.004Z,102016.44
2023-08-07T16:23:34.015Z,101999.59
2023-08-07T16:26:00.893Z,101998.69
2023-08-07T16:28:27.567Z,102042.03
2023-08-07T16:30:54.555Z,102012.84
2023-08-07T16:33:23.588Z,101997.75
2023-08-07T16:35:50.322Z,102034.03
2023-08-07T16:38:19.722Z,102034.00
2023-08-07T16:40:46.603Z,101970.22
2023-08-07T16:43:13.725Z,102023.38
2023-08-07T16:45:45.045Z,102025.06
2023-08-07T16:48:14.131Z,102020.59
2023-08-07T16:50:43.581Z,102023.19
2023-08-07T16:53:18.050Z,101994.84
2023-08-07T16:55:44.728Z,102019.59
2023-08-07T16:58:11.373Z,102008.88
2023-08-07T17:00:38.041Z,101979.59
2023-08-07T17:03:05.128Z,102002.50
2023-08-07T17:05:32.243Z,101892.56
2023-08-07T17:07:58.997Z,102015.69
2023-08-07T17:10:25.680Z,101997.00
2023-08-07T17:12:52.299Z,102018.31
2023-08-07T17:15:21.661Z,102019.16
2023-08-07T17:17:59.290Z,102020.91
2023-08-07T17:20:26.029Z,102013.81
2023-08-07T17:22:52.665Z,102012.03
2023-08-07T17:25:19.438Z,102025.34
2023-08-07T17:27:49.175Z,101992.66
2023-08-07T17:30:15.952Z,102002.50
2023-08-07T17:32:42.677Z,101923.69
2023-08-07T17:35:09.604Z,102029.13
2023-08-07T17:37:36.330Z,102004.34
2023-08-07T17:40:04.637Z,101971.66
2023-08-07T17:42:31.379Z,102021.25
2023-08-07T17:44:58.757Z,102005.34
2023-08-07T17:47:27.887Z,102003.56
2023-08-07T17:49:56.867Z,102004.41
2023-08-07T17:52:23.767Z,102017.66
2023-08-07T17:54:51.964Z,102012.38
2023-08-07T17:57:19.080Z,102017.63
2023-08-07T17:59:46.407Z,102016.69
2023-08-07T18:02:16.240Z,102016.66
2023-08-07T18:04:43.561Z,101882.69
2023-08-07T18:07:10.323Z,102004.06
2023-08-07T18:09:37.006Z,101963.19
2023-08-07T18:12:04.716Z,101986.03
2023-08-07T18:14:31.442Z,101924.88
2023-08-07T18:17:01.066Z,102011.66
2023-08-07T18:19:28.083Z,101984.00
2023-08-07T18:22:00.778Z,102004.25
2023-08-07T18:24:28.200Z,102010.38
2023-08-07T18:26:55.059Z,102010.28
2023-08-07T18:29:24.088Z,101979.94
2023-08-07T18:31:53.384Z,102010.06
2023-08-07T18:34:20.069Z,101994.97
2023-08-07T18:36:47.838Z,102000.22
2023-08-07T18:39:15.887Z,102004.59
2023-08-07T18:41:43.739Z,101933.59
2023-08-07T18:44:12.907Z,101987.72
2023-08-07T18:46:39.656Z,101992.00
2023-08-07T18:49:08.830Z,101993.63
2023-08-07T18:51:36.614Z,101975.72
2023-08-07T18:54:08.600Z,101981.72
2023-08-07T18:56:35.288Z,101986.97
2023-08-07T18:59:04.588Z,101981.53
2023-08-07T19:01:32.472Z,101974.28
2023-08-07T19:03:59.786Z,101983.00
2023-08-07T19:06:32.388Z,101966.00
2023-08-07T19:08:59.463Z,101844.28
2023-08-07T19:11:28.727Z,101982.59
2023-08-07T19:13:59.159Z,101949.53
2023-08-07T19:16:25.942Z,101972.50
2023-08-07T19:18:52.781Z,101974.19
2023-08-07T19:21:21.962Z,101957.22
2023-08-07T19:23:48.651Z,101949.97
2023-08-07T19:26:15.456Z,101975.63
2023-08-07T19:28:42.151Z,101967.59
2023-08-07T19:31:08.922Z,101966.56
2023-08-07T19:33:35.689Z,101949.50
2023-08-07T19:36:04.816Z,101970.75
2023-08-07T19:38:31.475Z,101962.72
2023-08-07T19:40:58.176Z,101934.16
2023-08-07T19:43:24.937Z,101965.97
2023-08-07T19:45:51.659Z,101942.75
2023-08-07T19:48:18.490Z,101944.59
2023-08-07T19:50:45.901Z,101945.34
2023-08-07T19:53:12.582Z,101943.41
2023-08-07T19:55:39.369Z,101957.53
2023-08-07T19:58:06.074Z,101953.94
2023-08-07T20:00:35.102Z,101933.44
2023-08-07T20:03:06.198Z,101929.03
2023-08-07T20:05:32.921Z,101845.34
2023-08-07T20:07:59.626Z,101923.53
2023-08-07T20:10:29.309Z,101951.72
2023-08-07T20:12:55.976Z,101933.84
2023-08-07T20:15:22.934Z,101958.59
2023-08-07T20:17:50.406Z,101959.38
2023-08-07T20:20:21.148Z,101945.06
2023-08-07T20:22:48.756Z,101956.53
2023-08-07T20:25:18.070Z,101959.97
2023-08-07T20:27:44.792Z,101914.50
2023-08-07T20:30:11.629Z,101945.59
2023-08-07T20:32:38.679Z,101943.66
2023-08-07T20:35:05.898Z,101966.66
2023-08-07T20:37:32.727Z,101828.09
2023-08-07T20:40:01.765Z,101961.31
2023-08-07T20:42:30.770Z,101839.50
2023-08-07T20:44:59.712Z,101936.47
2023-08-07T20:47:26.386Z,101929.22
2023-08-07T20:49:53.128Z,101898.78
2023-08-07T20:52:19.996Z,101940.63
2023-08-07T20:54:46.725Z,101902.22
2023-08-07T20:57:13.418Z,101954.50
2023-08-07T20:59:40.218Z,101921.63
2023-08-07T21:02:07.557Z,101964.13
2023-08-07T21:04:34.422Z,101960.59
2023-08-07T21:07:01.132Z,101958.75
2023-08-07T21:09:30.373Z,101964.81
2023-08-07T21:11:57.341Z,101963.84
2023-08-07T21:14:24.314Z,101937.94
2023-08-07T21:16:51.069Z,101853.25
2023-08-07T21:19:17.998Z,101965.47
2023-08-07T21:21:44.643Z,101982.94
2023-08-07T21:24:13.205Z,101968.00
2023-08-07T21:26:41.645Z,101961.00
2023-08-07T21:29:08.656Z,101935.16
2023-08-07T21:31:35.803Z,101934.19
2023-08-07T21:34:03.352Z,101961.63
2023-08-07T21:36:30.112Z,101898.38
2023-08-07T21:38:58.959Z,101954.31
2023-08-07T21:41:26.871Z,101957.00
2023-08-07T21:43:56.069Z,101924.16
2023-08-07T21:46:25.808Z,101961.22
2023-08-07T21:48:52.532Z,101924.84
2023-08-07T21:51:19.423Z,101955.00
2023-08-07T21:53:48.659Z,101961.06
2023-08-07T21:56:19.957Z,101949.59
2023-08-07T21:58:46.644Z,101945.84
2023-08-07T22:01:14.540Z,101949.44
2023-08-07T22:03:41.318Z,101950.22
2023-08-07T22:06:08.102Z,101951.03
2023-08-07T22:08:34.860Z,101950.06
2023-08-07T22:11:04.170Z,101951.75
2023-08-07T22:13:31.608Z,101920.47
2023-08-07T22:15:58.380Z,101944.44
2023-08-07T22:18:25.128Z,101961.19
2023-08-07T22:20:51.784Z,101954.94
2023-08-07T22:23:18.570Z,101949.63
2023-08-07T22:25:45.231Z,101901.41
2023-08-07T22:28:11.951Z,101953.03
2023-08-07T22:30:38.806Z,101951.13
2023-08-07T22:33:05.850Z,101938.47
2023-08-07T22:35:32.828Z,101882.41
2023-08-07T22:37:59.560Z,101927.69
2023-08-07T22:40:26.221Z,101926.72
2023-08-07T22:42:52.981Z,101892.69
2023-08-07T22:45:22.465Z,101933.66
2023-08-07T22:47:51.548Z,101923.81
2023-08-07T22:50:19.716Z,101942.56
2023-08-07T22:52:46.533Z,101886.28
2023-08-07T22:55:13.388Z,101953.75
2023-08-07T22:57:40.064Z,101924.34
2023-08-07T23:00:08.337Z,101917.09
2023-08-07T23:02:39.853Z,101943.66
2023-08-07T23:05:07.174Z,101867.13
2023-08-07T23:07:33.997Z,101922.22
2023-08-07T23:10:00.919Z,101939.97
2023-08-07T23:12:27.947Z,101870.56
2023-08-07T23:14:54.610Z,101907.00
2023-08-07T23:17:21.431Z,101932.66
2023-08-07T23:19:48.344Z,101920.13
2023-08-07T23:22:17.183Z,101904.91
2023-08-07T23:24:46.296Z,101926.19
2023-08-07T23:27:14.358Z,101935.03
2023-08-07T23:29:44.086Z,101917.22
2023-08-07T23:32:11.161Z,101930.50
2023-08-07T23:34:37.801Z,101932.13
2023-08-07T23:37:07.113Z,101894.59
2023-08-07T23:39:33.804Z,101922.03
2023-08-07T23:42:01.492Z,101871.84
2023-08-07T23:44:28.401Z,101908.34
2023-08-07T23:46:55.097Z,101927.97
2023-08-07T23:49:22.538Z,101939.34
2023-08-07T23:51:49.235Z,101936.56
2023-08-07T23:54:18.029Z,101932.09
2023-08-07T23:56:44.724Z,101943.31
2023-08-07T23:59:13.729Z,101904.06
